createdAt,value
2017-09-12T00:01:37.941Z,1.90
2017-09-12T00:04:05.501Z,1.90
2017-09-12T00:06:33.060Z,1.63
2017-09-12T00:09:00.668Z,2.33
2017-09-12T00:11:28.223Z,1.60
2017-09-12T00:13:55.787Z,2.03
2017-09-12T00:16:24.073Z,1.80
2017-09-12T00:18:51.617Z,2.17
2017-09-12T00:21:19.187Z,1.67
2017-09-12T00:23:46.776Z,2.50
2017-09-12T00:26:14.344Z,1.80
2017-09-12T00:28:41.946Z,2.37
2017-09-12T00:31:09.511Z,1.73
2017-09-12T00:33:37.115Z,1.87
2017-09-12T00:36:04.715Z,2.53
2017-09-12T00:38:32.272Z,1.67
2017-09-12T00:40:59.845Z,1.83
2017-09-12T00:43:27.408Z,2.03
2017-09-12T00:45:54.983Z,2.33
2017-09-12T00:48:22.591Z,1.67
2017-09-12T00:50:50.143Z,1.90
2017-09-12T00:53:17.697Z,1.87
2017-09-12T00:55:45.304Z,2.00
2017-09-12T00:58:12.859Z,2.13
2017-09-12T01:00:40.695Z,1.80
2017-09-12T01:03:08.259Z,1.97
2017-09-12T01:05:35.848Z,1.80
2017-09-12T01:08:03.426Z,2.00
2017-09-12T01:10:31.410Z,2.20
2017-09-12T01:13:00.100Z,1.90
2017-09-12T01:15:27.745Z,2.27
2017-09-12T01:17:55.304Z,1.80
2017-09-12T01:20:22.905Z,2.10
2017-09-12T01:22:50.470Z,1.83
2017-09-12T01:25:18.357Z,2.00
2017-09-12T01:27:45.910Z,2.53
2017-09-12T01:30:13.471Z,1.90
2017-09-12T01:32:41.040Z,2.93
2017-09-12T01:35:08.590Z,2.27
2017-09-12T01:37:36.448Z,2.10
2017-09-12T01:40:04.401Z,2.03
2017-09-12T01:42:31.956Z,2.20
2017-09-12T01:44:59.551Z,2.27
2017-09-12T01:47:27.117Z,1.80
2017-09-12T01:49:54.979Z,2.00
2017-09-12T01:52:22.532Z,1.93
2017-09-12T01:54:50.087Z,1.80
2017-09-12T01:57:17.943Z,2.20
2017-09-12T01:59:45.506Z,2.30
2017-09-12T02:02:13.076Z,2.13
2017-09-12T02:04:40.650Z,2.30
2017-09-12T02:07:08.188Z,2.13
2017-09-12T02:09:36.230Z,1.90
2017-09-12T02:12:03.802Z,2.00
2017-09-12T02:14:31.643Z,2.23
2017-09-12T02:16:59.220Z,1.70
2017-09-12T02:19:26.760Z,1.90
2017-09-12T02:21:54.343Z,2.23
2017-09-12T02:24:21.943Z,1.90
2017-09-12T02:26:49.537Z,2.10
2017-09-12T02:29:17.124Z,1.67
2017-09-12T02:31:44.946Z,2.17
2017-09-12T02:34:12.515Z,2.10
2017-09-12T02:36:40.077Z,2.67
2017-09-12T02:39:07.878Z,2.10
2017-09-12T02:41:35.448Z,2.30
2017-09-12T02:44:03.291Z,2.10
2017-09-12T02:46:30.848Z,2.33
2017-09-12T02:48:58.478Z,2.40
2017-09-12T02:51:26.052Z,2.77
2017-09-12T02:53:53.625Z,2.07
2017-09-12T02:56:21.566Z,2.13
2017-09-12T02:58:49.125Z,2.07
2017-09-12T03:01:16.707Z,2.10
2017-09-12T03:03:44.409Z,2.10
2017-09-12T03:06:11.957Z,2.03
2017-09-12T03:08:40.556Z,2.03
2017-09-12T03:11:08.197Z,2.30
2017-09-12T03:13:36.714Z,1.93
2017-09-12T03:16:04.311Z,2.30
2017-09-12T03:18:31.906Z,1.90
2017-09-12T03:20:59.770Z,1.70
2017-09-12T03:23:27.335Z,2.07
2017-09-12T03:25:54.904Z,2.30
2017-09-12T03:28:22.500Z,1.90
2017-09-12T03:30:50.066Z,2.20
2017-09-12T03:33:17.909Z,2.20
2017-09-12T03:35:45.464Z,1.93
2017-09-12T03:38:13.018Z,2.00
2017-09-12T03:40:40.681Z,2.57
2017-09-12T03:43:08.241Z,2.30
2017-09-12T03:45:36.114Z,2.20
2017-09-12T03:48:03.668Z,2.37
2017-09-12T03:50:31.221Z,1.90
2017-09-12T03:52:58.792Z,2.63
2017-09-12T03:55:26.346Z,2.33
2017-09-12T03:57:54.281Z,1.83
2017-09-12T04:00:21.822Z,2.30
2017-09-12T04:02:49.459Z,2.40
2017-09-12T04:05:17.086Z,2.13
2017-09-12T04:07:44.655Z,2.47
2017-09-12T04:10:12.224Z,2.13
2017-09-12T04:12:39.803Z,2.07
2017-09-12T04:15:07.696Z,3.13
2017-09-12T04:17:35.242Z,2.60
2017-09-12T04:20:04.423Z,2.27
2017-09-12T04:22:32.071Z,2.13
2017-09-12T04:24:59.664Z,2.30
2017-09-12T04:27:27.242Z,2.30
2017-09-12T04:29:54.798Z,2.27
2017-09-12T04:32:22.730Z,2.07
2017-09-12T04:34:50.298Z,3.30
2017-09-12T04:37:18.187Z,2.73
2017-09-12T04:39:45.756Z,2.33
2017-09-12T04:42:13.759Z,2.97
2017-09-12T04:44:41.329Z,3.07
2017-09-12T04:47:08.946Z,2.97
2017-09-12T04:49:36.819Z,2.17
2017-09-12T04:52:04.380Z,2.20
2017-09-12T04:54:31.949Z,2.50
2017-09-12T04:56:59.793Z,2.60
2017-09-12T04:59:27.355Z,2.77
2017-09-12T05:01:54.951Z,2.67
2017-09-12T05:04:23.235Z,3.77
2017-09-12T05:06:50.942Z,3.43
2017-09-12T05:09:18.522Z,3.20
2017-09-12T05:11:46.087Z,2.77
2017-09-12T05:14:13.660Z,2.53
2017-09-12T05:16:41.296Z,2.67
2017-09-12T05:19:08.855Z,2.60
2017-09-12T05:21:36.689Z,2.07
2017-09-12T05:24:04.279Z,2.20
2017-09-12T05:26:31.885Z,2.53
2017-09-12T05:28:59.437Z,2.63
2017-09-12T05:31:27.024Z,2.43
2017-09-12T05:33:54.621Z,2.47
2017-09-12T05:36:22.208Z,2.47
2017-09-12T05:38:49.762Z,2.47
2017-09-12T05:41:17.334Z,2.00
2017-09-12T05:43:45.189Z,2.50
2017-09-12T05:46:12.736Z,2.50
2017-09-12T05:48:40.288Z,2.50
2017-09-12T05:51:07.969Z,2.10
2017-09-12T05:53:35.540Z,1.90
2017-09-12T05:56:03.131Z,2.10
2017-09-12T05:58:30.692Z,2.50
2017-09-12T06:00:58.285Z,2.53
2017-09-12T06:03:25.849Z,2.50
2017-09-12T06:05:54.505Z,2.63
2017-09-12T06:08:22.045Z,2.63
2017-09-12T06:10:49.610Z,2.40
2017-09-12T06:13:18.757Z,2.20
2017-09-12T06:15:46.316Z,1.87
2017-09-12T06:18:13.907Z,2.63
2017-09-12T06:20:41.440Z,2.10
2017-09-12T06:23:09.028Z,2.20
2017-09-12T06:25:36.557Z,2.30
2017-09-12T06:28:04.484Z,2.20
2017-09-12T06:30:32.296Z,2.20
2017-09-12T06:32:59.878Z,2.43
2017-09-12T06:35:27.478Z,2.27
2017-09-12T06:37:56.077Z,2.70
2017-09-12T06:40:23.696Z,2.40
2017-09-12T06:42:51.383Z,1.73
2017-09-12T06:45:22.367Z,2.07
2017-09-12T06:47:51.362Z,2.40
2017-09-12T06:50:20.530Z,1.80
2017-09-12T06:55:20.914Z,1.90
2017-09-12T06:57:51.406Z,1.90
2017-09-12T07:00:21.278Z,1.77
2017-09-12T07:02:50.120Z,2.00
2017-09-12T07:05:21.569Z,1.60
2017-09-12T07:07:52.131Z,2.77
2017-09-12T07:10:20.923Z,2.03
2017-09-12T07:12:49.420Z,2.37
2017-09-12T07:15:17.053Z,1.93
2017-09-12T07:17:45.007Z,2.00
2017-09-12T07:20:12.656Z,2.00
2017-09-12T07:22:42.648Z,1.93
2017-09-12T07:25:11.567Z,1.90
2017-09-12T07:27:39.924Z,1.87
2017-09-12T07:30:07.546Z,1.63
2017-09-12T07:32:35.872Z,2.00
2017-09-12T07:35:03.489Z,1.97
2017-09-12T07:37:32.028Z,1.90
2017-09-12T07:39:59.911Z,2.30
2017-09-12T07:42:27.578Z,2.23
2017-09-12T07:44:55.171Z,2.30
2017-09-12T07:47:22.774Z,1.60
2017-09-12T07:49:53.013Z,2.47
2017-09-12T07:52:21.815Z,2.00
2017-09-12T07:54:51.243Z,2.20
2017-09-12T07:57:18.850Z,2.00
2017-09-12T07:59:46.370Z,2.20
2017-09-12T08:02:14.254Z,2.03
2017-09-12T08:04:46.419Z,1.77
2017-09-12T08:07:14.024Z,1.90
2017-09-12T08:09:43.323Z,1.87
2017-09-12T08:12:12.542Z,2.10
2017-09-12T08:14:41.929Z,1.90
2017-09-12T08:17:10.449Z,1.67
2017-09-12T08:19:38.005Z,2.43
2017-09-12T08:22:05.621Z,1.77
2017-09-12T08:24:33.191Z,2.27
2017-09-12T08:27:07.781Z,2.00
2017-09-12T08:29:43.780Z,2.50
2017-09-12T08:32:24.214Z,2.60
2017-09-12T08:34:53.052Z,2.00
2017-09-12T08:37:22.767Z,2.07
2017-09-12T08:39:52.449Z,2.10
2017-09-12T08:42:22.165Z,2.87
2017-09-12T08:44:51.130Z,2.03
2017-09-12T08:47:18.774Z,2.17
2017-09-12T08:49:46.705Z,1.83
2017-09-12T08:52:14.274Z,2.37
2017-09-12T08:54:42.987Z,2.30
2017-09-12T08:57:11.741Z,2.33
2017-09-12T08:59:40.919Z,2.40
2017-09-12T09:02:08.825Z,2.93
2017-09-12T09:04:36.437Z,2.00
2017-09-12T09:07:06.173Z,2.40
2017-09-12T09:09:33.967Z,2.20
2017-09-12T09:12:02.873Z,2.20
2017-09-12T09:14:30.929Z,2.13
2017-09-12T09:16:58.545Z,2.57
2017-09-12T09:19:26.258Z,2.23
2017-09-12T09:21:53.911Z,2.33
2017-09-12T09:24:23.254Z,2.50
2017-09-12T09:26:51.713Z,2.30
2017-09-12T09:29:19.373Z,2.10
2017-09-12T09:31:48.534Z,2.20
2017-09-12T09:34:16.159Z,2.73
2017-09-12T09:36:43.786Z,2.03
2017-09-12T09:39:15.743Z,2.10
2017-09-12T09:41:43.366Z,7.37
2017-09-12T09:44:12.558Z,3.30
2017-09-12T09:46:40.987Z,2.30
2017-09-12T09:49:08.652Z,2.20
2017-09-12T09:51:36.352Z,2.00
2017-09-12T09:54:03.938Z,1.97
2017-09-12T09:56:33.226Z,2.40
2017-09-12T09:59:02.562Z,2.30
2017-09-12T10:01:30.182Z,2.20
2017-09-12T10:03:58.081Z,2.93
2017-09-12T10:06:26.410Z,2.50
2017-09-12T10:08:54.008Z,2.23
2017-09-12T10:11:22.531Z,2.80
2017-09-12T10:13:51.875Z,2.70
2017-09-12T10:16:19.827Z,2.50
2017-09-12T10:18:47.420Z,2.57
2017-09-12T10:21:15.010Z,2.60
2017-09-12T10:23:44.683Z,1.80
2017-09-12T10:26:13.743Z,2.33
2017-09-12T10:28:42.152Z,2.80
2017-09-12T10:31:09.745Z,2.50
2017-09-12T10:33:37.626Z,3.03
2017-09-12T10:36:05.202Z,2.57
2017-09-12T10:38:33.197Z,2.00
2017-09-12T10:41:02.009Z,2.60
2017-09-12T10:43:29.537Z,2.47
2017-09-12T10:45:57.436Z,3.00
2017-09-12T10:48:25.023Z,2.50
2017-09-12T10:50:54.180Z,2.60
2017-09-12T10:53:23.727Z,2.47
2017-09-12T10:55:52.922Z,2.70
2017-09-12T10:58:22.310Z,2.30
2017-09-12T11:00:49.913Z,2.90
2017-09-12T11:03:18.157Z,2.70
2017-09-12T11:05:45.814Z,2.90
2017-09-12T11:08:13.494Z,2.83
2017-09-12T11:10:41.145Z,2.07
2017-09-12T11:13:08.865Z,2.30
2017-09-12T11:15:36.761Z,2.27
2017-09-12T11:18:04.371Z,2.03
2017-09-12T11:20:32.711Z,2.37
2017-09-12T11:23:00.348Z,2.33
2017-09-12T11:25:27.934Z,1.97
2017-09-12T11:27:55.796Z,2.30
2017-09-12T11:30:23.366Z,2.33
2017-09-12T11:32:50.951Z,2.33
2017-09-12T11:35:18.625Z,2.40
2017-09-12T11:37:46.242Z,1.73
2017-09-12T11:40:14.190Z,1.77
2017-09-12T11:42:41.811Z,2.10
2017-09-12T11:45:09.401Z,2.20
2017-09-12T11:47:37.048Z,1.97
2017-09-12T11:50:04.617Z,2.37
2017-09-12T11:52:32.487Z,2.70
2017-09-12T11:55:00.087Z,2.03
2017-09-12T11:57:27.726Z,2.57
2017-09-12T11:59:55.643Z,2.27
2017-09-12T12:02:24.431Z,2.53
2017-09-12T12:04:52.031Z,2.60
2017-09-12T12:07:20.026Z,2.23
2017-09-12T12:09:48.401Z,2.10
2017-09-12T12:12:16.019Z,1.97
2017-09-12T12:14:43.662Z,2.00
2017-09-12T12:17:11.280Z,1.90
2017-09-12T12:19:39.288Z,1.87
2017-09-12T12:22:06.882Z,1.60
2017-09-12T12:24:34.478Z,2.30
2017-09-12T12:27:02.384Z,2.07
2017-09-12T12:29:29.977Z,1.83
2017-09-12T12:31:57.611Z,1.67
2017-09-12T12:34:25.298Z,1.90
2017-09-12T12:36:52.898Z,1.80
2017-09-12T12:39:22.240Z,1.90
2017-09-12T12:41:49.900Z,3.30
2017-09-12T12:44:17.520Z,2.50
2017-09-12T12:46:45.135Z,2.03
2017-09-12T12:49:12.815Z,2.10
2017-09-12T12:51:41.033Z,2.03
2017-09-12T12:54:10.159Z,1.90
2017-09-12T12:56:38.074Z,2.20
2017-09-12T12:59:05.666Z,1.50
2017-09-12T13:01:34.619Z,1.40
2017-09-12T13:04:02.224Z,1.47
2017-09-12T13:06:29.800Z,1.20
2017-09-12T13:08:57.670Z,1.40
2017-09-12T13:11:25.278Z,1.30
2017-09-12T13:13:52.877Z,1.50
2017-09-12T13:16:20.564Z,1.10
2017-09-12T13:18:48.152Z,1.00
2017-09-12T13:21:16.021Z,1.10
2017-09-12T13:23:43.593Z,0.80
2017-09-12T13:26:11.171Z,1.00
2017-09-12T13:28:38.756Z,0.97
2017-09-12T13:31:06.891Z,0.83
2017-09-12T13:33:34.754Z,0.90
2017-09-12T13:36:02.302Z,0.70
2017-09-12T13:38:29.882Z,0.80
2017-09-12T13:40:57.827Z,0.90
2017-09-12T13:43:26.559Z,0.83
2017-09-12T13:45:54.133Z,1.03
2017-09-12T13:48:21.670Z,0.97
2017-09-12T13:50:49.233Z,1.10
2017-09-12T13:53:17.105Z,1.17
2017-09-12T13:55:46.174Z,1.10
2017-09-12T13:58:13.781Z,0.87
2017-09-12T14:00:41.458Z,1.00
2017-09-12T14:03:09.096Z,0.97
2017-09-12T14:05:36.690Z,0.90
2017-09-12T14:08:04.275Z,1.10
2017-09-12T14:10:32.146Z,0.90
2017-09-12T14:12:59.883Z,1.10
2017-09-12T14:15:27.471Z,1.00
2017-09-12T14:17:55.082Z,1.00
2017-09-12T14:20:22.706Z,1.40
2017-09-12T14:22:50.623Z,0.90
2017-09-12T14:25:18.242Z,1.00
2017-09-12T14:27:45.850Z,1.00
2017-09-12T14:30:13.475Z,0.90
2017-09-12T14:32:41.093Z,1.07
2017-09-12T14:35:09.001Z,1.13
2017-09-12T14:37:36.601Z,1.10
2017-09-12T14:40:04.283Z,1.27
2017-09-12T14:42:31.971Z,2.03
2017-09-12T14:44:59.581Z,1.70
2017-09-12T14:47:27.271Z,1.10
2017-09-12T14:49:54.901Z,1.20
2017-09-12T14:52:22.759Z,1.10
2017-09-12T14:54:50.336Z,1.00
2017-09-12T14:57:17.901Z,0.90
2017-09-12T14:59:45.515Z,0.90
2017-09-12T15:02:13.097Z,1.33
2017-09-12T15:04:40.715Z,0.90
2017-09-12T15:07:08.296Z,1.13
2017-09-12T15:09:36.139Z,1.00
2017-09-12T15:12:04.053Z,1.30
2017-09-12T15:14:31.672Z,1.17
2017-09-12T15:16:59.320Z,1.03
2017-09-12T15:19:26.926Z,1.00
2017-09-12T15:21:54.827Z,1.00
2017-09-12T15:24:22.434Z,0.97
2017-09-12T15:26:50.066Z,1.10
2017-09-12T15:29:17.686Z,1.07
2017-09-12T15:31:45.432Z,1.30
2017-09-12T15:34:13.043Z,0.90
2017-09-12T15:36:40.708Z,1.07
2017-09-12T15:39:08.341Z,1.07
2017-09-12T15:41:36.025Z,1.13
2017-09-12T15:44:03.635Z,1.40
2017-09-12T15:46:31.544Z,1.20
2017-09-12T15:48:59.139Z,1.10
2017-09-12T15:51:26.744Z,1.17
2017-09-12T15:53:55.901Z,1.20
2017-09-12T15:56:23.467Z,1.17
2017-09-12T15:58:51.303Z,1.30
2017-09-12T16:01:18.861Z,1.00
2017-09-12T16:06:20.189Z,1.10
2017-09-12T16:08:49.339Z,0.90
2017-09-12T16:11:17.085Z,0.90
2017-09-12T16:13:44.710Z,1.10
2017-09-12T16:16:12.893Z,1.03
2017-09-12T16:18:40.480Z,1.40
2017-09-12T16:21:08.092Z,1.47
2017-09-12T16:23:35.717Z,1.30
2017-09-12T16:26:03.302Z,1.10
2017-09-12T16:28:30.899Z,1.33
2017-09-12T16:30:58.598Z,1.30
2017-09-12T16:33:26.502Z,1.50
2017-09-12T16:35:54.100Z,1.37
2017-09-12T16:38:21.645Z,1.70
2017-09-12T16:40:49.212Z,2.30
2017-09-12T16:43:16.754Z,1.33
2017-09-12T16:45:44.430Z,1.50
2017-09-12T16:48:11.998Z,1.50
2017-09-12T16:50:39.867Z,1.10
2017-09-12T16:53:07.455Z,1.60
2017-09-12T16:55:35.043Z,1.33
2017-09-12T16:58:02.736Z,1.40
2017-09-12T17:00:30.304Z,1.20
2017-09-12T17:02:57.877Z,1.40
2017-09-12T17:05:25.451Z,1.27
2017-09-12T17:07:54.480Z,1.30
2017-09-12T17:10:22.083Z,1.30
2017-09-12T17:12:49.683Z,1.20
2017-09-12T17:15:17.285Z,1.17
2017-09-12T17:17:44.854Z,1.17
2017-09-12T17:20:12.739Z,1.60
2017-09-12T17:22:40.313Z,1.30
2017-09-12T17:25:07.884Z,1.57
2017-09-12T17:27:35.465Z,1.03
2017-09-12T17:30:36.686Z,1.40
2017-09-12T17:33:04.300Z,1.30
2017-09-12T17:35:32.007Z,1.70
2017-09-12T17:37:59.946Z,1.30
2017-09-12T17:40:27.688Z,1.30
2017-09-12T17:42:55.250Z,1.90
2017-09-12T17:45:22.866Z,2.33
2017-09-12T17:47:50.499Z,2.67
2017-09-12T17:50:18.145Z,3.40
2017-09-12T17:52:45.769Z,2.27
2017-09-12T17:55:13.558Z,1.50
2017-09-12T17:57:41.141Z,1.80
2017-09-12T18:00:08.696Z,1.40
2017-09-12T18:02:37.364Z,1.40
2017-09-12T18:05:05.507Z,1.20
2017-09-12T18:07:33.111Z,1.50
2017-09-12T18:10:00.712Z,1.50
2017-09-12T18:12:28.617Z,1.27
2017-09-12T18:14:56.611Z,1.60
2017-09-12T18:17:24.575Z,1.90
2017-09-12T18:19:52.841Z,1.70
2017-09-12T18:22:20.814Z,1.63
2017-09-12T18:24:48.887Z,1.40
2017-09-12T18:27:16.507Z,1.73
2017-09-12T18:29:44.390Z,1.80
2017-09-12T18:32:11.996Z,1.50
2017-09-12T18:34:39.844Z,1.50
2017-09-12T18:37:07.631Z,1.67
2017-09-12T18:39:35.538Z,1.60
2017-09-12T18:42:03.555Z,1.60
2017-09-12T18:44:31.311Z,2.10
2017-09-12T18:46:58.975Z,1.80
2017-09-12T18:49:26.554Z,1.40
2017-09-12T18:51:54.278Z,1.90
2017-09-12T18:54:21.845Z,1.40
2017-09-12T18:56:49.476Z,1.50
2017-09-12T18:59:17.417Z,1.50
2017-09-12T19:01:52.290Z,1.20
2017-09-12T19:04:21.551Z,1.40
2017-09-12T19:06:49.117Z,1.67
2017-09-12T19:09:17.247Z,1.77
2017-09-12T19:11:44.846Z,1.40
2017-09-12T19:14:12.463Z,1.30
2017-09-12T19:16:40.098Z,1.33
2017-09-12T19:19:07.705Z,1.37
2017-09-12T19:21:36.624Z,1.23
2017-09-12T19:24:04.334Z,1.57
2017-09-12T19:26:32.360Z,1.40
2017-09-12T19:29:00.014Z,1.33
2017-09-12T19:31:27.613Z,1.20
2017-09-12T19:33:55.254Z,1.50
2017-09-12T19:36:22.848Z,2.50
2017-09-12T19:38:50.438Z,1.30
2017-09-12T19:41:18.039Z,1.17
2017-09-12T19:43:46.764Z,1.70
2017-09-12T19:46:14.354Z,1.20
2017-09-12T19:48:42.042Z,1.30
2017-09-12T19:51:09.729Z,1.30
2017-09-12T19:53:37.322Z,1.50
2017-09-12T19:56:04.953Z,1.40
2017-09-12T19:58:32.592Z,1.60
2017-09-12T20:01:01.255Z,1.70
2017-09-12T20:03:28.838Z,1.43
2017-09-12T20:05:56.477Z,1.50
2017-09-12T20:08:25.198Z,1.73
2017-09-12T20:10:53.655Z,1.33
2017-09-12T20:13:24.834Z,1.67
2017-09-12T20:15:53.543Z,1.37
2017-09-12T20:18:22.316Z,1.43
2017-09-12T20:20:50.640Z,1.80
2017-09-12T20:23:19.572Z,1.47
2017-09-12T20:25:48.265Z,1.30
2017-09-12T20:28:18.591Z,1.50
2017-09-12T20:30:46.746Z,1.50
2017-09-12T20:33:15.607Z,1.53
2017-09-12T20:35:44.101Z,1.47
2017-09-12T20:38:13.003Z,1.40
2017-09-12T20:40:40.742Z,1.30
2017-09-12T20:43:09.700Z,1.43
2017-09-12T20:45:39.329Z,2.20
2017-09-12T20:48:08.490Z,1.70
2017-09-12T20:50:36.102Z,1.57
2017-09-12T20:53:04.804Z,1.23
2017-09-12T20:55:33.356Z,1.50
2017-09-12T20:58:00.932Z,1.47
2017-09-12T21:00:31.341Z,1.30
2017-09-12T21:03:00.288Z,1.67
2017-09-12T21:05:28.622Z,1.27
2017-09-12T21:07:56.785Z,1.30
2017-09-12T21:10:25.582Z,1.67
2017-09-12T21:12:55.073Z,1.70
2017-09-12T21:15:22.649Z,1.43
2017-09-12T21:17:50.271Z,1.80
2017-09-12T21:20:18.957Z,1.60
2017-09-12T21:22:46.599Z,1.50
2017-09-12T21:25:15.628Z,1.57
2017-09-12T21:27:45.189Z,1.63
2017-09-12T21:30:12.864Z,1.43
2017-09-12T21:32:40.726Z,1.27
2017-09-12T21:35:09.430Z,1.23
2017-09-12T21:37:37.015Z,1.50
2017-09-12T21:40:06.221Z,1.20
2017-09-12T21:42:34.036Z,1.33
2017-09-12T21:45:01.870Z,1.33
2017-09-12T21:47:29.436Z,1.20
2017-09-12T21:49:57.558Z,1.87
2017-09-12T21:52:25.224Z,1.50
2017-09-12T21:54:53.852Z,1.30
2017-09-12T21:57:21.426Z,1.70
2017-09-12T21:59:49.045Z,1.30
2017-09-12T22:02:16.622Z,1.57
2017-09-12T22:04:44.187Z,1.57
2017-09-12T22:07:11.814Z,1.80
2017-09-12T22:09:39.359Z,1.67
2017-09-12T22:12:06.932Z,1.67
2017-09-12T22:14:35.566Z,1.73
2017-09-12T22:17:03.753Z,1.50
2017-09-12T22:19:31.333Z,1.20
2017-09-12T22:21:58.989Z,1.77
2017-09-12T22:24:26.681Z,1.60
2017-09-12T22:26:54.253Z,1.70
2017-09-12T22:29:21.902Z,1.47
2017-09-12T22:31:49.476Z,1.40
2017-09-12T22:34:17.187Z,1.43
2017-09-12T22:36:44.788Z,1.37
2017-09-12T22:39:12.396Z,1.40
2017-09-12T22:41:39.950Z,1.40
2017-09-12T22:44:07.912Z,1.67
2017-09-12T22:46:35.476Z,1.70
2017-09-12T22:49:05.058Z,1.57
2017-09-12T22:51:32.655Z,1.30
2017-09-12T22:54:00.211Z,1.57
2017-09-12T22:56:27.860Z,1.20
2017-09-12T22:58:55.422Z,1.40
2017-09-12T23:01:23.148Z,1.70
2017-09-12T23:03:50.713Z,1.33
2017-09-12T23:06:18.357Z,1.20
2017-09-12T23:08:45.910Z,1.43
2017-09-12T23:11:14.346Z,1.20
2017-09-12T23:13:41.964Z,1.20
2017-09-12T23:16:09.543Z,1.60
2017-09-12T23:18:37.171Z,1.47
2017-09-12T23:21:05.414Z,1.50
2017-09-12T23:23:33.033Z,1.50
2017-09-12T23:26:00.602Z,1.43
2017-09-12T23:28:28.303Z,1.40
2017-09-12T23:30:55.861Z,1.83
2017-09-12T23:33:23.450Z,1.60
2017-09-12T23:35:51.014Z,1.30
2017-09-12T23:38:18.598Z,1.53
2017-09-12T23:40:46.765Z,1.37
2017-09-12T23:43:14.374Z,1.37
2017-09-12T23:45:42.847Z,1.20
2017-09-12T23:48:10.400Z,1.20
2017-09-12T23:50:38.008Z,1.53
2017-09-12T23:53:05.761Z,1.33
2017-09-12T23:55:33.401Z,1.40
2017-09-12T23:58:00.995Z,1.57
